Time;durP1;ratioP1;P1;durP2;ratioP2;P2;SDS_P1;SDS_P2;PMS_P1;PMS_P2;Temp;Humidity;BMP_temperature;BMP_pressure;BME280_temperature;BME280_humidity;BME280_pressure;Samples;Min_cycle;Max_cycle;Signal;HPM_P1;HPM_P2
2023/09/14 00:01:32;;;;;;;;;1.00;1.00;;;;;25.13;57.30;100766.00;110318;1264;17744;-38
2023/09/14 00:03:58;;;;;;;;;1.00;1.00;;;;;25.12;57.28;100767.65;110323;1251;19731;-38
2023/09/14 00:06:23;;;;;;;;;1.00;1.00;;;;;25.15;57.36;100769.04;110314;1251;20663;-38
2023/09/14 00:08:49;;;;;;;;;1.00;1.00;;;;;25.16;57.24;100772.47;110262;1251;19043;-38
2023/09/14 00:11:15;;;;;;;;;2.00;1.00;;;;;25.15;57.11;100771.77;110297;1249;18449;-38
2023/09/14 00:13:41;;;;;;;;;1.00;1.00;;;;;25.15;57.15;100769.14;110234;1264;18192;-38
2023/09/14 00:16:07;;;;;;;;;2.00;2.00;;;;;25.16;57.09;100765.50;110273;1251;19191;-39
2023/09/14 00:18:33;;;;;;;;;1.00;1.00;;;;;25.16;57.05;100770.88;110295;1251;19923;-37
2023/09/14 00:20:59;;;;;;;;;2.00;1.00;;;;;25.15;57.27;100772.48;110301;1251;19663;-37
2023/09/14 00:23:25;;;;;;;;;2.00;2.00;;;;;25.16;57.04;100772.69;110232;1256;19888;-37
2023/09/14 00:25:51;;;;;;;;;2.00;2.00;;;;;25.17;56.93;100772.55;110287;1264;19348;-37
2023/09/14 00:28:18;;;;;;;;;2.00;2.00;;;;;25.15;56.95;100780.48;110342;1264;17972;-37
2023/09/14 00:30:44;;;;;;;;;1.00;1.00;;;;;25.16;57.10;100785.41;110309;1264;22778;-37
2023/09/14 00:33:10;;;;;;;;;1.00;1.00;;;;;25.17;56.98;100787.80;110261;1264;19612;-37
2023/09/14 00:35:36;;;;;;;;;1.00;1.00;;;;;25.18;57.02;100788.89;110314;1248;20090;-38
2023/09/14 00:38:02;;;;;;;;;2.00;2.00;;;;;25.15;57.08;100787.13;110277;1248;19027;-38
2023/09/14 00:40:28;;;;;;;;;1.00;1.00;;;;;25.15;57.03;100784.82;110242;1248;19752;-37
2023/09/14 00:42:53;;;;;;;;;2.00;2.00;;;;;25.20;56.70;100786.23;110142;1248;19381;-38
2023/09/14 00:45:19;;;;;;;;;1.00;1.00;;;;;25.20;56.80;100788.59;110148;1264;17816;-38
2023/09/14 00:47:45;;;;;;;;;1.00;1.00;;;;;25.20;56.77;100793.14;110175;1248;19741;-38
2023/09/14 00:50:15;;;;;;;;;1.00;1.00;;;;;25.19;56.81;100797.38;110166;1264;22331;-38
2023/09/14 00:52:41;;;;;;;;;1.00;1.00;;;;;25.19;56.98;100797.48;110187;1249;19513;-38
2023/09/14 00:55:06;;;;;;;;;1.00;1.00;;;;;25.20;56.81;100799.48;110304;1249;21618;-38
2023/09/14 00:57:32;;;;;;;;;1.00;1.00;;;;;25.17;56.81;100802.33;110304;1248;21990;-38
2023/09/14 00:59:58;;;;;;;;;1.00;1.00;;;;;25.19;56.80;100806.64;110286;1250;18680;-38
2023/09/14 01:02:24;;;;;;;;;1.00;1.00;;;;;25.16;56.76;100810.02;110287;1251;19838;-38
2023/09/14 01:04:50;;;;;;;;;1.00;1.00;;;;;25.19;56.71;100814.04;110318;1251;19442;-37
2023/09/14 01:07:17;;;;;;;;;1.00;1.00;;;;;25.19;56.64;100817.21;110276;1251;20283;-37
2023/09/14 01:09:43;;;;;;;;;1.00;1.00;;;;;25.19;56.84;100817.21;110265;1264;22078;-37
2023/09/14 01:12:09;;;;;;;;;1.50;1.50;;;;;25.18;56.91;100816.03;110295;1251;22204;-38
2023/09/14 01:14:35;;;;;;;;;1.00;1.00;;;;;25.16;56.83;100815.72;110271;1257;19303;-37
2023/09/14 01:17:01;;;;;;;;;1.50;1.50;;;;;25.17;56.82;100818.23;110311;1249;19802;-38
2023/09/14 01:19:27;;;;;;;;;1.50;1.50;;;;;25.19;56.66;100819.35;110300;1264;18102;-37
2023/09/14 01:21:53;;;;;;;;;2.00;1.00;;;;;25.19;56.67;100819.96;110288;1251;19093;-37
2023/09/14 01:24:19;;;;;;;;;1.00;1.00;;;;;25.16;56.65;100821.75;110299;1251;19752;-37
2023/09/14 01:26:45;;;;;;;;;1.50;1.50;;;;;25.19;56.68;100822.43;110298;1264;19603;-37
2023/09/14 01:29:11;;;;;;;;;1.00;1.00;;;;;25.17;56.73;100824.98;110284;1251;19100;-36
2023/09/14 01:31:38;;;;;;;;;1.00;1.00;;;;;25.18;56.65;100824.84;110328;1264;18203;-36
2023/09/14 01:34:04;;;;;;;;;1.00;1.00;;;;;25.18;56.73;100825.79;110321;1248;21976;-36
2023/09/14 01:36:30;;;;;;;;;1.00;1.00;;;;;25.20;56.58;100821.81;110282;1251;19223;-36
2023/09/14 01:38:56;;;;;;;;;1.00;1.00;;;;;25.19;56.64;100824.95;110185;1251;19856;-37
2023/09/14 01:41:21;;;;;;;;;1.00;1.00;;;;;25.18;56.71;100827.27;110235;1264;19277;-37
2023/09/14 01:43:47;;;;;;;;;2.00;1.00;;;;;25.18;56.63;100831.16;110251;1257;19452;-37
2023/09/14 01:46:14;;;;;;;;;2.00;1.00;;;;;25.21;56.50;100834.45;110251;1250;21126;-37
2023/09/14 01:48:40;;;;;;;;;1.00;1.00;;;;;25.21;56.61;100834.23;110286;1248;19254;-38
2023/09/14 01:51:05;;;;;;;;;1.00;1.00;;;;;25.18;56.73;100837.90;110259;1251;20516;-38
2023/09/14 01:53:31;;;;;;;;;2.00;1.00;;;;;25.17;56.66;100842.19;110319;1264;18333;-38
2023/09/14 01:55:57;;;;;;;;;1.00;1.00;;;;;25.19;56.48;100844.14;110211;1264;19175;-37
2023/09/14 01:58:25;;;;;;;;;1.00;1.00;;;;;25.17;56.64;100844.66;110198;1248;19116;-38
2023/09/14 02:00:51;;;;;;;;;1.00;1.00;;;;;25.16;56.61;100846.32;110325;1264;18681;-38
2023/09/14 02:03:17;;;;;;;;;1.00;1.00;;;;;25.15;56.65;100850.84;110268;1251;19512;-36
2023/09/14 02:05:43;;;;;;;;;1.00;1.00;;;;;25.16;56.71;100854.33;110300;1250;19465;-36
2023/09/14 02:08:08;;;;;;;;;1.00;1.00;;;;;25.15;56.66;100855.60;110267;1248;22024;-38
2023/09/14 02:10:34;;;;;;;;;1.00;1.00;;;;;25.16;56.72;100857.94;110284;1251;21585;-36
2023/09/14 02:13:00;;;;;;;;;1.50;1.50;;;;;25.18;56.47;100856.60;110283;1251;19102;-36
2023/09/14 02:15:26;;;;;;;;;1.00;1.00;;;;;25.20;56.51;100860.25;110282;1264;21194;-37
2023/09/14 02:17:52;;;;;;;;;1.00;1.00;;;;;25.17;56.54;100857.38;110287;1248;22721;-37
2023/09/14 02:20:18;;;;;;;;;1.00;1.00;;;;;25.17;56.60;100855.89;110300;1248;21640;-37
2023/09/14 02:22:44;;;;;;;;;1.00;1.00;;;;;25.18;56.42;100853.26;110292;1248;21653;-37
2023/09/14 02:25:10;;;;;;;;;1.00;1.00;;;;;25.22;56.29;100854.80;110298;1257;19288;-37
2023/09/14 02:27:36;;;;;;;;;1.00;1.00;;;;;25.20;56.41;100856.24;110304;1264;21498;-37
2023/09/14 02:30:03;;;;;;;;;1.00;1.00;;;;;25.18;56.54;100851.94;110292;1248;21502;-34
2023/09/14 02:32:29;;;;;;;;;1.00;1.00;;;;;25.20;56.57;100849.39;110219;1264;22650;-38
2023/09/14 02:34:55;;;;;;;;;1.00;1.00;;;;;25.20;56.31;100853.50;110276;1251;19162;-37
2023/09/14 02:37:21;;;;;;;;;2.00;2.00;;;;;25.19;56.31;100856.31;110275;1250;19655;-37
2023/09/14 02:39:47;;;;;;;;;1.00;1.00;;;;;25.19;56.30;100863.73;110325;1251;19458;-37
2023/09/14 02:42:13;;;;;;;;;1.50;1.50;;;;;25.21;56.39;100869.66;110320;1251;19106;-38
2023/09/14 02:44:38;;;;;;;;;1.00;1.00;;;;;25.21;56.33;100869.17;110314;1248;19627;-38
2023/09/14 02:47:04;;;;;;;;;1.00;1.00;;;;;25.20;56.42;100875.22;110293;1264;17966;-37
2023/09/14 02:49:30;;;;;;;;;2.00;1.00;;;;;25.17;56.51;100878.75;110343;1251;19192;-38
2023/09/14 02:51:56;;;;;;;;;2.00;2.00;;;;;25.21;56.41;100885.02;110269;1256;21240;-37
2023/09/14 02:54:22;;;;;;;;;2.00;2.00;;;;;25.17;56.20;100884.68;110281;1264;18010;-37
2023/09/14 02:56:48;;;;;;;;;1.00;1.00;;;;;25.16;56.34;100887.06;110320;1264;17618;-38
2023/09/14 02:59:16;;;;;;;;;2.00;2.00;;;;;25.17;56.37;100897.02;110282;1250;19909;-37
2023/09/14 03:01:42;;;;;;;;;1.00;1.00;;;;;25.19;56.30;100900.78;110284;1248;21569;-37
2023/09/14 03:04:08;;;;;;;;;1.00;1.00;;;;;25.19;56.40;100906.65;110304;1251;21759;-37
2023/09/14 03:06:34;;;;;;;;;1.00;1.00;;;;;25.18;56.21;100909.23;110272;1251;22172;-37
2023/09/14 03:09:00;;;;;;;;;2.00;2.00;;;;;25.21;56.10;100913.20;110275;1253;20255;-37
2023/09/14 03:11:26;;;;;;;;;1.00;1.00;;;;;25.20;56.33;100914.46;110306;1250;19200;-37
2023/09/14 03:13:52;;;;;;;;;1.00;1.00;;;;;25.22;56.22;100921.02;110278;1253;19838;-38
2023/09/14 03:16:18;;;;;;;;;1.00;1.00;;;;;25.19;56.09;100921.48;110266;1260;20525;-37
2023/09/14 03:18:44;;;;;;;;;2.00;2.00;;;;;25.21;56.04;100924.16;110308;1251;19504;-37
2023/09/14 03:21:10;;;;;;;;;1.00;1.00;;;;;25.19;56.23;100925.29;110299;1257;19875;-37
2023/09/14 03:23:36;;;;;;;;;1.00;1.00;;;;;25.19;56.06;100921.73;110301;1249;19431;-37
2023/09/14 03:26:02;;;;;;;;;2.00;1.00;;;;;25.20;56.17;100923.53;110244;1251;19147;-37
2023/09/14 03:28:28;;;;;;;;;2.00;1.00;;;;;25.20;56.22;100931.41;110262;1251;20044;-38
2023/09/14 03:30:54;;;;;;;;;2.00;2.00;;;;;25.17;56.34;100933.54;110283;1251;19514;-38
2023/09/14 03:33:20;;;;;;;;;2.50;2.00;;;;;25.16;56.29;100942.66;110292;1264;17687;-38
2023/09/14 03:35:46;;;;;;;;;1.00;1.00;;;;;25.17;56.23;100944.28;110211;1249;21375;-38
2023/09/14 03:38:12;;;;;;;;;1.00;1.00;;;;;25.17;56.05;100949.16;110211;1257;19712;-38
2023/09/14 03:40:38;;;;;;;;;1.67;1.67;;;;;25.16;56.14;100951.76;110249;1264;22170;-38
2023/09/14 03:43:04;;;;;;;;;2.00;2.00;;;;;25.16;56.12;100953.40;110229;1264;18309;-37
2023/09/14 03:45:30;;;;;;;;;1.00;1.00;;;;;25.17;55.99;100950.74;110282;1264;22217;-38
2023/09/14 03:47:56;;;;;;;;;1.00;1.00;;;;;25.19;56.08;100955.77;110251;1258;20151;-38
2023/09/14 03:50:22;;;;;;;;;1.00;1.00;;;;;25.17;56.10;100960.29;110242;1257;21605;-38
2023/09/14 03:52:48;;;;;;;;;2.00;1.50;;;;;25.17;56.06;100964.67;110265;1248;19581;-38
2023/09/14 03:55:14;;;;;;;;;2.00;2.00;;;;;25.18;56.02;100969.33;110243;1249;19076;-38
2023/09/14 03:57:46;;;;;;;;;2.00;2.00;;;;;25.17;55.99;100974.00;110229;1256;21823;-38
2023/09/14 04:00:14;;;;;;;;;2.00;2.00;;;;;25.18;56.20;100984.56;110242;1250;19795;-38
2023/09/14 04:02:40;;;;;;;;;1.00;1.00;;;;;25.19;56.06;100986.80;110215;1264;19222;-39
2023/09/14 04:05:06;;;;;;;;;1.00;1.00;;;;;25.17;56.19;100988.58;110286;1251;20236;-38
2023/09/14 04:07:32;;;;;;;;;1.00;1.00;;;;;25.19;56.09;100991.52;110299;1249;19497;-38
2023/09/14 04:09:58;;;;;;;;;1.00;1.00;;;;;25.17;55.96;100992.75;110294;1264;18998;-38
2023/09/14 04:12:24;;;;;;;;;1.00;1.00;;;;;25.16;55.94;100994.77;110253;1248;21775;-38
2023/09/14 04:14:50;;;;;;;;;2.00;2.00;;;;;25.16;55.88;100997.09;110166;1264;18787;-38
2023/09/14 04:17:16;;;;;;;;;1.00;1.00;;;;;25.15;56.03;100997.94;110249;1251;19080;-37
2023/09/14 04:19:43;;;;;;;;;2.00;2.00;;;;;25.15;56.12;101002.52;110179;1249;19107;-39
2023/09/14 04:22:09;;;;;;;;;1.00;1.00;;;;;25.15;56.07;101005.38;110282;1264;18161;-38
2023/09/14 04:24:35;;;;;;;;;1.00;1.00;;;;;25.16;56.09;101005.70;110308;1263;17551;-38
2023/09/14 04:27:01;;;;;;;;;2.00;2.00;;;;;25.15;55.90;101009.27;110309;1251;19753;-38
2023/09/14 04:29:27;;;;;;;;;1.00;1.00;;;;;25.16;55.84;101014.80;110292;1251;19416;-37
2023/09/14 04:31:53;;;;;;;;;2.00;2.00;;;;;25.16;55.99;101020.06;110276;1251;22334;-38
2023/09/14 04:34:19;;;;;;;;;1.00;1.00;;;;;25.17;55.79;101020.89;110297;1257;19727;-38
2023/09/14 04:36:45;;;;;;;;;1.00;1.00;;;;;25.15;56.03;101017.88;110298;1258;19502;-38
2023/09/14 04:39:11;;;;;;;;;1.00;1.00;;;;;25.15;55.90;101017.61;110288;1248;17626;-38
2023/09/14 04:41:37;;;;;;;;;2.00;2.00;;;;;25.14;55.93;101017.30;110293;1248;21073;-38
2023/09/14 04:44:03;;;;;;;;;1.50;1.50;;;;;25.16;56.02;101021.77;110315;1251;19441;-38
2023/09/14 04:46:29;;;;;;;;;1.00;1.00;;;;;25.17;55.67;101025.59;110186;1248;20291;-37
2023/09/14 04:48:55;;;;;;;;;1.00;1.00;;;;;25.18;55.80;101029.74;110315;1264;19197;-37
2023/09/14 04:51:22;;;;;;;;;5.00;3.00;;;;;25.12;55.81;101030.15;110298;1264;19212;-38
2023/09/14 04:53:48;;;;;;;;;6.00;5.50;;;;;25.11;54.74;101033.84;110203;1251;22846;-38
2023/09/14 04:56:14;;;;;;;;;7.00;7.00;;;;;25.06;53.85;101030.87;110201;1264;18551;-38
2023/09/14 04:58:40;;;;;;;;;6.00;6.00;;;;;25.02;53.12;101030.16;110247;1256;20211;-38
2023/09/14 05:01:06;;;;;;;;;9.00;9.00;;;;;24.98;52.72;101031.46;110212;1250;19060;-37
2023/09/14 05:03:32;;;;;;;;;7.00;7.00;;;;;24.72;51.18;101031.61;110206;1264;19906;-37
2023/09/14 05:05:58;;;;;;;;;10.00;7.00;;;;;23.98;51.64;101033.77;110232;1248;18145;-36
2023/09/14 05:08:25;;;;;;;;;9.00;8.00;;;;;23.79;52.26;101032.91;110243;1264;22106;-37
2023/09/14 05:10:51;;;;;;;;;8.00;8.00;;;;;24.14;51.87;101036.17;110201;1264;21693;-38
2023/09/14 05:13:18;;;;;;;;;6.00;5.00;;;;;24.25;51.47;101036.09;110220;1257;19614;-38
2023/09/14 05:15:44;;;;;;;;;6.00;5.00;;;;;24.25;51.77;101041.08;110223;1251;19320;-38
2023/09/14 05:18:10;;;;;;;;;5.00;5.00;;;;;24.35;51.96;101038.49;110225;1251;19917;-38
2023/09/14 05:20:36;;;;;;;;;5.00;5.00;;;;;24.50;51.93;101040.88;110294;1251;20514;-38
2023/09/14 05:23:02;;;;;;;;;5.00;4.00;;;;;24.63;51.89;101046.73;110294;1250;19158;-38
2023/09/14 05:25:28;;;;;;;;;5.00;5.00;;;;;24.71;51.92;101049.98;110297;1250;20061;-38
2023/09/14 05:27:54;;;;;;;;;5.00;5.00;;;;;24.75;52.27;101048.95;110306;1251;19389;-37
2023/09/14 05:30:22;;;;;;;;;4.00;4.00;;;;;24.85;52.00;101055.64;110292;1264;17840;-38
2023/09/14 05:32:49;;;;;;;;;309.50;223.50;;;;;24.91;52.11;101053.11;110314;1264;19167;-38
2023/09/14 05:35:15;;;;;;;;;343.33;236.33;;;;;24.92;52.13;101054.42;110292;1250;19893;-38
2023/09/14 05:37:41;;;;;;;;;242.50;186.50;;;;;24.97;52.23;101058.27;110310;1264;18385;-37
2023/09/14 05:40:11;;;;;;;;;203.67;154.33;;;;;25.01;52.12;101055.99;110268;1264;21992;-37
2023/09/14 05:42:38;;;;;;;;;193.00;142.50;;;;;25.01;51.89;101061.52;110312;1264;18932;-37
2023/09/14 05:45:03;;;;;;;;;96.00;71.00;;;;;25.01;51.94;101062.79;110283;1264;18306;-36
2023/09/14 05:47:29;;;;;;;;;77.00;59.00;;;;;24.96;51.58;101066.71;110287;1250;21182;-37
2023/09/14 05:49:55;;;;;;;;;62.00;44.00;;;;;24.83;51.25;101063.34;110298;1251;20114;-37
2023/09/14 05:52:21;;;;;;;;;49.00;39.00;;;;;24.76;50.97;101063.45;110205;1264;19377;-38
2023/09/14 05:54:47;;;;;;;;;36.50;25.50;;;;;24.75;50.82;101061.45;110247;1250;18690;-37
2023/09/14 05:57:14;;;;;;;;;31.00;26.00;;;;;24.64;50.89;101061.99;110290;1264;18371;-37
2023/09/14 05:59:40;;;;;;;;;16.67;14.67;;;;;24.57;51.22;101066.17;110252;1257;22069;-38
2023/09/14 06:02:06;;;;;;;;;10.00;10.00;;;;;24.44;51.31;101065.24;110219;1251;19749;-37
2023/09/14 06:04:32;;;;;;;;;10.00;8.00;;;;;24.53;51.14;101067.73;110193;1264;22222;-37
2023/09/14 06:06:58;;;;;;;;;6.00;6.00;;;;;24.53;50.78;101070.41;109965;1248;393421;-37
2023/09/14 06:09:24;;;;;;;;;5.00;5.00;;;;;24.43;51.19;101073.46;110283;1248;19657;-37
2023/09/14 06:11:49;;;;;;;;;8.00;6.00;;;;;24.41;51.32;101070.75;110311;1253;19423;-37
2023/09/14 06:14:15;;;;;;;;;5.00;5.00;;;;;24.40;51.08;101073.01;110267;1248;19092;-37
2023/09/14 06:16:41;;;;;;;;;5.00;4.00;;;;;24.43;51.04;101070.89;110272;1248;22190;-37
2023/09/14 06:19:07;;;;;;;;;5.00;4.00;;;;;24.38;51.27;101075.21;110242;1253;19443;-38
2023/09/14 06:21:33;;;;;;;;;5.00;4.50;;;;;24.36;51.12;101069.37;110309;1264;17653;-36
2023/09/14 06:23:59;;;;;;;;;4.00;4.00;;;;;24.37;51.17;101071.60;110314;1251;19696;-36
2023/09/14 06:26:25;;;;;;;;;5.00;5.00;;;;;24.34;51.17;101072.17;110315;1264;17953;-36
2023/09/14 06:28:51;;;;;;;;;5.50;4.50;;;;;24.25;51.48;101074.70;110240;1251;21078;-37
2023/09/14 06:31:17;;;;;;;;;4.50;4.00;;;;;24.22;51.62;101077.12;110245;1264;18435;-39
2023/09/14 06:33:43;;;;;;;;;5.00;5.00;;;;;24.27;51.45;101079.94;110288;1264;18109;-37
2023/09/14 06:36:09;;;;;;;;;4.00;4.00;;;;;24.31;51.39;101081.40;110302;1251;19041;-37
2023/09/14 06:38:35;;;;;;;;;5.00;4.00;;;;;24.27;51.63;101081.20;110251;1264;18349;-37
2023/09/14 06:41:01;;;;;;;;;6.00;5.00;;;;;24.24;51.68;101082.58;110197;1264;18547;-37
2023/09/14 06:43:27;;;;;;;;;5.00;5.00;;;;;24.19;51.92;101088.41;110289;1264;19326;-35
2023/09/14 06:45:53;;;;;;;;;6.00;5.00;;;;;24.26;51.92;101087.06;110279;1251;19663;-36
2023/09/14 06:48:19;;;;;;;;;6.00;6.00;;;;;24.15;52.13;101093.86;110271;1264;18410;-36
2023/09/14 06:50:46;;;;;;;;;6.00;6.00;;;;;23.73;53.03;101100.30;110250;1251;18948;-36
2023/09/14 06:53:12;;;;;;;;;7.00;5.50;;;;;23.56;53.55;101102.41;110285;1257;21905;-36
2023/09/14 06:55:38;;;;;;;;;8.50;6.00;;;;;23.50;53.62;101100.23;110283;1264;17999;-36
2023/09/14 06:58:04;;;;;;;;;11.00;8.00;;;;;23.49;53.74;101102.19;110207;1250;19481;-39
2023/09/14 07:00:32;;;;;;;;;8.00;8.00;;;;;23.46;54.02;101110.19;110217;1251;19053;-37
2023/09/14 07:02:58;;;;;;;;;8.00;8.00;;;;;23.37;54.27;101113.45;110203;1251;19950;-37
2023/09/14 07:05:24;;;;;;;;;6.00;6.00;;;;;23.34;54.14;101119.91;110248;1264;22104;-37
2023/09/14 07:07:50;;;;;;;;;9.00;8.00;;;;;23.23;54.42;101119.56;110255;1250;20976;-37
2023/09/14 07:10:16;;;;;;;;;5.00;5.00;;;;;23.20;54.34;101120.77;110272;1251;19560;-36
2023/09/14 07:12:42;;;;;;;;;16.00;13.00;;;;;23.19;54.25;101125.36;110252;1248;20200;-36
2023/09/14 07:15:08;;;;;;;;;20.50;14.00;;;;;23.10;54.74;101127.58;110216;1264;19972;-36
2023/09/14 07:17:34;;;;;;;;;11.00;11.00;;;;;23.13;54.81;101126.15;110262;1251;19787;-36
2023/09/14 07:20:00;;;;;;;;;8.50;8.00;;;;;23.11;54.74;101129.05;110225;1251;19413;-36
2023/09/14 07:22:26;;;;;;;;;11.50;10.50;;;;;23.10;54.63;101128.28;110217;1263;19408;-35
2023/09/14 07:24:52;;;;;;;;;9.00;8.00;;;;;23.14;54.43;101130.73;110216;1251;19360;-37
2023/09/14 07:27:19;;;;;;;;;9.00;8.00;;;;;23.15;54.74;101132.21;110225;1264;19037;-36
2023/09/14 07:29:45;;;;;;;;;12.00;9.00;;;;;23.01;55.36;101133.88;110222;1251;21874;-36
2023/09/14 07:32:11;;;;;;;;;11.50;11.00;;;;;23.02;55.30;101143.98;110196;1251;19079;-36
2023/09/14 07:34:37;;;;;;;;;9.00;9.00;;;;;23.03;55.46;101143.21;110249;1259;19229;-37
2023/09/14 07:37:03;;;;;;;;;9.00;8.00;;;;;23.08;55.43;101146.16;110248;1253;20079;-37
2023/09/14 07:39:29;;;;;;;;;7.00;5.00;;;;;23.03;55.78;101146.83;110238;1263;19213;-36
2023/09/14 07:41:55;;;;;;;;;7.50;7.00;;;;;22.94;56.11;101147.77;110217;1248;17680;-36
2023/09/14 07:44:21;;;;;;;;;7.00;7.00;;;;;22.92;56.44;101148.15;110202;1248;20377;-36
2023/09/14 07:46:47;;;;;;;;;5.00;5.00;;;;;22.89;56.61;101151.16;110205;1250;19610;-37
2023/09/14 07:49:13;;;;;;;;;5.00;5.00;;;;;22.90;56.39;101152.96;110224;1251;19089;-37
2023/09/14 07:51:39;;;;;;;;;5.00;5.00;;;;;22.84;56.36;101153.77;110187;1264;18322;-37
2023/09/14 07:54:05;;;;;;;;;4.50;4.50;;;;;22.79;55.97;101156.55;110248;1248;21605;-37
2023/09/14 07:56:31;;;;;;;;;7.00;7.00;;;;;22.67;56.48;101156.92;110182;1264;21461;-37
2023/09/14 07:58:57;;;;;;;;;7.00;6.00;;;;;22.76;55.89;101158.69;110251;1264;18321;-35
2023/09/14 08:01:23;;;;;;;;;5.00;5.00;;;;;22.84;55.74;101161.75;110240;1264;19288;-38
2023/09/14 08:03:49;;;;;;;;;4.50;4.50;;;;;22.88;55.30;101165.23;110207;1249;21762;-36
2023/09/14 08:06:18;;;;;;;;;4.00;4.00;;;;;22.96;55.26;101162.52;110182;1251;20076;-35
2023/09/14 08:08:44;;;;;;;;;2.00;2.00;;;;;22.98;54.84;101166.99;110209;1264;22069;-35
2023/09/14 08:11:11;;;;;;;;;5.00;5.00;;;;;22.98;54.85;101165.80;110284;1264;19064;-35
2023/09/14 08:13:37;;;;;;;;;5.00;4.00;;;;;23.01;54.64;101162.95;110259;1248;20195;-36
2023/09/14 08:16:02;;;;;;;;;5.00;4.00;;;;;23.01;55.10;101167.64;110230;1251;19419;-36
2023/09/14 08:18:29;;;;;;;;;3.00;3.00;;;;;22.95;54.81;101165.96;110242;1264;17900;-36
2023/09/14 08:20:55;;;;;;;;;5.00;5.00;;;;;23.05;54.50;101163.27;110198;1251;20159;-36
2023/09/14 08:23:21;;;;;;;;;8.00;5.00;;;;;23.12;54.21;101167.63;110203;1251;22139;-37
2023/09/14 08:25:47;;;;;;;;;4.00;4.00;;;;;23.11;54.23;101170.42;110226;1264;19251;-37
2023/09/14 08:28:13;;;;;;;;;5.00;5.00;;;;;23.14;54.15;101172.83;110224;1250;20972;-37
2023/09/14 08:30:39;;;;;;;;;4.00;4.00;;;;;23.24;53.80;101179.58;110238;1253;19631;-37
2023/09/14 08:33:05;;;;;;;;;5.00;5.00;;;;;23.46;53.30;101179.04;110245;1249;19095;-36
2023/09/14 08:35:32;;;;;;;;;5.67;4.67;;;;;23.41;52.95;101176.42;110270;1251;21130;-36
2023/09/14 08:37:58;;;;;;;;;4.50;4.00;;;;;23.42;52.92;101178.45;110277;1264;18205;-34
2023/09/14 08:40:24;;;;;;;;;6.50;5.00;;;;;23.38;53.27;101182.34;110211;1264;18988;-34
2023/09/14 08:42:50;;;;;;;;;4.50;4.50;;;;;23.24;53.68;101181.88;110185;1264;19647;-35
2023/09/14 08:45:16;;;;;;;;;4.00;4.00;;;;;23.21;53.57;101185.43;110209;1264;20654;-36
2023/09/14 08:47:42;;;;;;;;;7.00;7.00;;;;;23.25;53.40;101187.66;110280;1251;19070;-36
2023/09/14 08:50:08;;;;;;;;;7.50;7.00;;;;;23.26;53.65;101188.64;110284;1253;20851;-35
2023/09/14 08:52:34;;;;;;;;;8.00;7.00;;;;;23.35;53.47;101193.66;110266;1264;17960;-35
2023/09/14 08:55:00;;;;;;;;;5.00;5.00;;;;;23.35;53.35;101193.00;110284;1248;17737;-37
2023/09/14 08:57:26;;;;;;;;;4.00;4.00;;;;;23.32;53.69;101193.94;110254;1251;19911;-34
2023/09/14 08:59:52;;;;;;;;;8.00;7.00;;;;;23.33;53.79;101199.09;110290;1257;20476;-37
2023/09/14 09:02:18;;;;;;;;;6.00;6.00;;;;;23.40;53.38;101201.09;110300;1264;18961;-34
2023/09/14 09:04:44;;;;;;;;;6.00;6.00;;;;;23.48;53.02;101204.13;110291;1264;18325;-35
2023/09/14 09:07:09;;;;;;;;;8.00;6.00;;;;;23.35;54.97;101206.29;110303;1248;19484;-36
2023/09/14 09:09:36;;;;;;;;;8.00;6.00;;;;;23.36;54.99;101206.83;110314;1251;19075;-35
2023/09/14 09:12:02;;;;;;;;;5.00;5.00;;;;;23.41;53.63;101208.36;110280;1264;21859;-35
2023/09/14 09:14:28;;;;;;;;;6.00;6.00;;;;;23.30;53.38;101209.14;110295;1251;19351;-35
2023/09/14 09:16:54;;;;;;;;;6.00;5.50;;;;;23.30;53.38;101216.30;110277;1264;17530;-35
2023/09/14 09:19:20;;;;;;;;;5.00;5.00;;;;;23.39;53.22;101215.91;110291;1250;19723;-35
2023/09/14 09:21:47;;;;;;;;;4.50;4.00;;;;;23.36;52.72;101215.42;110264;1264;21752;-35
2023/09/14 09:24:15;;;;;;;;;5.33;5.33;;;;;23.45;52.49;101218.30;110264;1257;18103;-36
2023/09/14 09:26:41;;;;;;;;;7.00;6.00;;;;;23.49;52.33;101219.71;110261;1257;20044;-36
2023/09/14 09:29:07;;;;;;;;;5.00;5.00;;;;;23.41;52.46;101218.36;110295;1257;19922;-36
2023/09/14 09:31:33;;;;;;;;;6.50;6.00;;;;;23.32;52.52;101220.89;110258;1251;19038;-36
2023/09/14 09:34:01;;;;;;;;;8.00;7.00;;;;;23.24;52.72;101217.73;110221;1264;18316;-36
2023/09/14 09:36:27;;;;;;;;;5.00;5.00;;;;;23.16;52.82;101217.36;110150;1251;22599;-37
2023/09/14 09:38:54;;;;;;;;;7.00;7.00;;;;;23.18;53.21;101216.81;110195;1248;19345;-36
2023/09/14 09:41:20;;;;;;;;;7.00;7.00;;;;;23.24;53.24;101219.86;110178;1259;18683;-36
2023/09/14 09:43:46;;;;;;;;;7.00;6.00;;;;;23.16;53.55;101219.61;110229;1264;18257;-35
2023/09/14 09:46:12;;;;;;;;;7.00;7.00;;;;;23.13;53.42;101221.63;110290;1248;21611;-35
2023/09/14 09:48:38;;;;;;;;;9.00;7.00;;;;;23.14;53.36;101223.48;110273;1264;19645;-35
2023/09/14 09:51:04;;;;;;;;;7.50;7.00;;;;;23.13;53.34;101220.92;110204;1257;19327;-36
2023/09/14 09:53:31;;;;;;;;;7.00;7.00;;;;;23.14;53.23;101228.90;110187;1248;19309;-36
2023/09/14 09:55:57;;;;;;;;;11.00;9.00;;;;;23.13;53.28;101230.70;110182;1251;21618;-36
2023/09/14 09:58:24;;;;;;;;;11.00;9.00;;;;;23.11;53.13;101232.33;110210;1248;19712;-36
2023/09/14 10:00:50;;;;;;;;;7.00;7.00;;;;;23.16;53.04;101229.38;110209;1251;19517;-36
2023/09/14 10:03:16;;;;;;;;;10.00;10.00;;;;;23.19;53.13;101232.06;110243;1264;18221;-36
2023/09/14 10:05:43;;;;;;;;;11.50;11.00;;;;;23.16;53.38;101233.48;110195;1248;19596;-37
2023/09/14 10:08:09;;;;;;;;;15.50;14.00;;;;;23.17;53.33;101236.48;110218;1249;19621;-36
2023/09/14 10:10:35;;;;;;;;;11.00;9.00;;;;;23.11;53.24;101238.46;110210;1248;19912;-35
2023/09/14 10:13:03;;;;;;;;;5.00;5.00;;;;;23.18;53.04;101240.97;110280;1264;21876;-36
2023/09/14 10:15:29;;;;;;;;;8.00;7.00;;;;;23.22;52.77;101237.64;110270;1250;19305;-36
2023/09/14 10:17:55;;;;;;;;;11.00;9.00;;;;;23.21;52.91;101239.33;110329;1251;19715;-36
2023/09/14 10:20:21;;;;;;;;;7.50;7.50;;;;;23.33;52.71;101238.27;110291;1251;20436;-36
2023/09/14 10:22:47;;;;;;;;;7.00;7.00;;;;;23.38;52.59;101241.16;110260;1248;17679;-34
2023/09/14 10:25:13;;;;;;;;;5.00;5.00;;;;;23.33;52.81;101241.17;110266;1250;19693;-34
2023/09/14 10:27:39;;;;;;;;;8.00;7.00;;;;;23.38;52.78;101243.79;110307;1264;17966;-37
2023/09/14 10:30:05;;;;;;;;;5.50;5.50;;;;;23.37;52.64;101242.31;110230;1264;19207;-35
2023/09/14 10:32:31;;;;;;;;;8.50;6.00;;;;;23.40;52.44;101241.16;110293;1248;18288;-35
2023/09/14 10:34:57;;;;;;;;;5.00;5.00;;;;;23.35;52.99;101237.13;110304;1251;19401;-35
2023/09/14 10:37:23;;;;;;;;;5.00;5.00;;;;;23.36;52.94;101241.66;110256;1250;22057;-37
2023/09/14 10:39:50;;;;;;;;;7.00;7.00;;;;;23.30;52.73;101239.70;110038;1260;19581;-38
2023/09/14 10:42:16;;;;;;;;;7.50;7.00;;;;;23.29;52.64;101245.61;110293;1264;18161;-37
2023/09/14 10:44:42;;;;;;;;;11.00;8.33;;;;;23.31;52.52;101247.36;110274;1250;19310;-37
2023/09/14 10:47:08;;;;;;;;;7.00;7.00;;;;;23.29;52.49;101248.77;110288;1253;19758;-37
2023/09/14 10:49:34;;;;;;;;;9.00;8.00;;;;;23.38;52.19;101253.25;110243;1251;19727;-37
2023/09/14 10:52:00;;;;;;;;;5.00;5.00;;;;;23.37;52.44;101253.47;110166;1248;21655;-36
2023/09/14 10:54:26;;;;;;;;;5.00;4.50;;;;;23.41;52.26;101252.59;110236;1264;18446;-37
2023/09/14 10:56:52;;;;;;;;;4.00;4.00;;;;;23.48;52.16;101260.17;110254;1251;21790;-37
2023/09/14 10:59:18;;;;;;;;;4.00;4.00;;;;;23.52;52.35;101264.90;110318;1248;19046;-37
2023/09/14 11:01:44;;;;;;;;;6.00;5.00;;;;;23.45;52.71;101263.64;110269;1248;18748;-37
2023/09/14 11:04:11;;;;;;;;;6.00;6.00;;;;;23.48;52.89;101268.33;110316;1264;19340;-37
2023/09/14 11:06:37;;;;;;;;;5.00;5.00;;;;;23.49;53.05;101270.95;110287;1250;19497;-36
2023/09/14 11:09:05;;;;;;;;;8.00;6.00;;;;;23.51;53.22;101270.91;110310;1251;20183;-36